createdAt,value
2017-10-28T00:02:00.307Z,4.95
2017-10-28T00:04:31.107Z,4.70
2017-10-28T00:07:01.262Z,4.18
2017-10-28T00:09:31.376Z,4.53
2017-10-28T00:12:01.464Z,5.78
2017-10-28T00:14:31.711Z,5.00
2017-10-28T00:17:01.850Z,5.18
2017-10-28T00:19:31.808Z,4.50
2017-10-28T00:22:01.735Z,5.15
2017-10-28T00:24:32.148Z,5.45
2017-10-28T00:27:02.138Z,5.00
2017-10-28T00:29:32.597Z,5.93
2017-10-28T00:32:08.313Z,5.28
2017-10-28T00:34:43.652Z,4.87
2017-10-28T00:37:14.084Z,4.55
2017-10-28T00:39:44.007Z,5.12
2017-10-28T00:42:13.936Z,5.37
2017-10-28T00:44:44.093Z,5.10
2017-10-28T00:47:13.912Z,4.97
2017-10-28T00:49:43.895Z,6.60
2017-10-28T00:52:13.802Z,5.05
2017-10-28T00:54:43.866Z,5.35
2017-10-28T00:57:13.826Z,5.62
2017-10-28T00:59:43.702Z,4.25
2017-10-28T01:02:14.117Z,4.55
2017-10-28T01:04:45.179Z,4.93
2017-10-28T01:07:15.879Z,4.40
2017-10-28T01:09:49.804Z,4.65
2017-10-28T01:12:19.744Z,5.22
2017-10-28T01:14:49.663Z,5.03
2017-10-28T01:17:19.590Z,4.20
2017-10-28T01:19:49.652Z,4.00
2017-10-28T01:22:19.886Z,4.40
2017-10-28T01:24:50.865Z,5.45
2017-10-28T01:27:21.463Z,5.18
2017-10-28T01:29:51.376Z,4.55
2017-10-28T01:32:21.322Z,4.30
2017-10-28T01:34:51.234Z,4.82
2017-10-28T01:37:21.095Z,4.75
2017-10-28T01:39:50.997Z,4.35
2017-10-28T01:42:20.957Z,5.15
2017-10-28T01:44:50.829Z,4.20
2017-10-28T01:47:20.760Z,4.65
2017-10-28T01:49:50.775Z,4.15
2017-10-28T01:52:20.925Z,5.05
2017-10-28T01:54:50.868Z,4.53
2017-10-28T01:57:20.719Z,4.57
2017-10-28T01:59:50.630Z,4.57
2017-10-28T02:02:20.611Z,4.12
2017-10-28T02:04:50.526Z,4.40
2017-10-28T02:07:20.470Z,4.95
2017-10-28T02:09:50.407Z,4.70
2017-10-28T02:12:22.159Z,5.15
2017-10-28T02:14:52.182Z,5.07
2017-10-28T02:17:22.294Z,5.22
2017-10-28T02:19:52.505Z,5.05
2017-10-28T02:22:23.548Z,4.80
2017-10-28T02:24:53.434Z,4.78
2017-10-28T02:27:23.887Z,5.87
2017-10-28T02:29:53.974Z,5.70
2017-10-28T02:32:23.879Z,5.70
2017-10-28T02:34:53.875Z,5.62
2017-10-28T02:37:23.846Z,6.05
2017-10-28T02:39:53.834Z,6.60
2017-10-28T02:42:24.146Z,7.40
2017-10-28T02:44:54.140Z,7.05
2017-10-28T02:47:24.186Z,6.75
2017-10-28T02:49:54.205Z,6.60
2017-10-28T02:52:24.151Z,6.43
2017-10-28T02:54:54.539Z,6.93
2017-10-28T02:57:24.489Z,6.95
2017-10-28T02:59:54.781Z,7.60
2017-10-28T03:02:24.687Z,7.95
2017-10-28T03:04:55.734Z,7.47
2017-10-28T03:07:25.660Z,6.80
2017-10-28T03:09:55.967Z,8.05
2017-10-28T03:12:26.011Z,7.68
2017-10-28T03:14:55.984Z,7.70
2017-10-28T03:17:25.937Z,8.30
2017-10-28T03:19:55.873Z,7.55
2017-10-28T03:22:25.846Z,8.02
2017-10-28T03:24:55.953Z,8.23
2017-10-28T03:27:26.567Z,7.85
2017-10-28T03:29:56.482Z,8.40
2017-10-28T03:32:26.450Z,8.00
2017-10-28T03:34:56.517Z,8.30
2017-10-28T03:37:26.437Z,8.15
2017-10-28T03:39:56.492Z,8.30
2017-10-28T03:42:26.373Z,7.75
2017-10-28T03:44:56.318Z,8.88
2017-10-28T03:47:26.197Z,8.30
2017-10-28T03:49:56.261Z,8.90
2017-10-28T03:52:26.305Z,8.18
2017-10-28T03:54:56.250Z,9.18
2017-10-28T03:57:26.423Z,9.18
2017-10-28T03:59:57.560Z,8.35
2017-10-28T04:02:27.485Z,9.23
2017-10-28T04:04:57.425Z,8.55
2017-10-28T04:07:27.315Z,9.32
2017-10-28T04:09:57.224Z,10.25
2017-10-28T04:12:27.223Z,9.93
2017-10-28T04:14:57.271Z,9.60
2017-10-28T04:17:27.659Z,11.43
2017-10-28T04:19:59.681Z,10.48
2017-10-28T04:22:29.831Z,10.38
2017-10-28T04:24:59.754Z,10.10
2017-10-28T04:27:30.512Z,9.80
2017-10-28T04:30:00.443Z,10.73
2017-10-28T04:32:30.544Z,9.68
2017-10-28T04:35:00.562Z,10.52
2017-10-28T04:37:31.134Z,9.60
2017-10-28T04:40:01.174Z,9.80
2017-10-28T04:42:31.062Z,9.95
2017-10-28T04:45:00.986Z,9.45
2017-10-28T04:47:31.090Z,10.80
2017-10-28T04:50:00.972Z,10.30
2017-10-28T04:52:30.879Z,10.15
2017-10-28T04:55:00.807Z,10.30
2017-10-28T04:57:30.764Z,9.95
2017-10-28T05:00:01.141Z,10.57
2017-10-28T05:02:31.080Z,11.05
2017-10-28T05:05:01.194Z,10.77
2017-10-28T05:07:30.784Z,11.45
2017-10-28T05:10:00.656Z,10.55
2017-10-28T05:12:31.928Z,11.60
2017-10-28T05:15:02.307Z,10.73
2017-10-28T05:17:32.317Z,10.90
2017-10-28T05:20:02.194Z,11.38
2017-10-28T05:22:32.341Z,12.57
2017-10-28T05:25:02.751Z,11.73
2017-10-28T05:27:32.832Z,12.05
2017-10-28T05:30:03.811Z,12.07
2017-10-28T05:32:38.411Z,12.15
2017-10-28T05:35:08.881Z,13.07
2017-10-28T05:37:38.830Z,12.75
2017-10-28T05:40:08.703Z,12.73
2017-10-28T05:42:38.810Z,13.40
2017-10-28T05:45:09.141Z,12.20
2017-10-28T05:47:44.218Z,12.70
2017-10-28T05:50:14.366Z,14.45
2017-10-28T05:52:44.005Z,11.40
2017-10-28T05:55:14.563Z,12.32
2017-10-28T05:57:44.556Z,11.20
2017-10-28T06:00:16.238Z,12.63
2017-10-28T06:02:47.412Z,12.13
2017-10-28T06:05:17.532Z,12.55
2017-10-28T06:07:47.437Z,12.65
2017-10-28T06:10:17.560Z,13.13
2017-10-28T06:12:47.580Z,12.63
2017-10-28T06:15:17.506Z,12.25
2017-10-28T06:17:47.707Z,12.80
2017-10-28T06:20:17.847Z,11.38
2017-10-28T06:22:48.711Z,11.73
2017-10-28T06:25:19.215Z,12.55
2017-10-28T06:27:49.145Z,12.18
2017-10-28T06:44:11.160Z,13.18
2017-10-28T06:46:41.015Z,13.27
2017-10-28T06:49:10.841Z,12.75
2017-10-28T06:51:40.610Z,12.90
2017-10-28T06:54:10.376Z,13.88
2017-10-28T06:56:40.208Z,12.65
2017-10-28T06:59:09.991Z,12.35
2017-10-28T07:01:39.725Z,13.82
2017-10-28T07:04:09.536Z,13.30
2017-10-28T07:06:39.470Z,13.18
2017-10-28T07:09:09.258Z,12.85
2017-10-28T07:11:39.057Z,12.10
2017-10-28T07:14:08.826Z,13.05
2017-10-28T07:16:38.586Z,11.40
2017-10-28T07:19:08.367Z,12.23
2017-10-28T07:21:38.123Z,11.63
2017-10-28T07:24:07.917Z,11.95
2017-10-28T07:26:37.676Z,11.73
2017-10-28T07:29:07.444Z,12.07
2017-10-28T07:31:37.237Z,12.73
2017-10-28T07:34:07.010Z,11.07
2017-10-28T07:36:36.769Z,12.55
2017-10-28T07:39:06.633Z,11.27
2017-10-28T07:41:36.432Z,10.10
2017-10-28T07:44:06.197Z,10.50
2017-10-28T07:46:35.979Z,10.38
2017-10-28T07:49:05.737Z,11.40
2017-10-28T07:51:35.480Z,11.10
2017-10-28T07:54:05.222Z,11.20
2017-10-28T07:56:34.967Z,11.05
2017-10-28T07:59:04.718Z,12.02
2017-10-28T08:01:34.304Z,11.60
2017-10-28T08:04:09.470Z,11.15
2017-10-28T08:06:39.214Z,11.82
2017-10-28T08:09:09.223Z,10.07
2017-10-28T08:11:38.982Z,10.18
2017-10-28T08:14:08.744Z,11.23
2017-10-28T08:16:38.497Z,10.95
2017-10-28T08:19:08.263Z,9.95
2017-10-28T08:21:37.850Z,8.95
2017-10-28T08:24:07.871Z,11.20
2017-10-28T08:26:37.618Z,11.68
2017-10-28T08:29:08.146Z,9.32
2017-10-28T08:31:37.908Z,9.57
2017-10-28T08:34:07.674Z,10.27
2017-10-28T08:36:37.434Z,10.40
2017-10-28T08:39:07.217Z,10.30
2017-10-28T08:41:36.964Z,9.45
2017-10-28T08:44:06.726Z,9.80
2017-10-28T08:46:36.488Z,10.30
2017-10-28T08:49:06.244Z,9.45
2017-10-28T08:51:35.989Z,10.02
2017-10-28T08:54:05.776Z,8.98
2017-10-28T08:56:35.368Z,8.75
2017-10-28T08:59:05.142Z,9.10
2017-10-28T09:01:34.888Z,8.82
2017-10-28T09:04:04.618Z,9.30
2017-10-28T09:06:34.374Z,9.60
2017-10-28T09:09:03.526Z,9.00
2017-10-28T09:11:33.309Z,8.45
2017-10-28T09:14:03.046Z,7.90
2017-10-28T09:16:32.801Z,9.13
2017-10-28T09:19:02.433Z,8.25
2017-10-28T09:21:32.197Z,9.85
2017-10-28T09:24:01.942Z,7.87
2017-10-28T09:26:31.680Z,8.60
2017-10-28T09:29:01.428Z,8.45
2017-10-28T09:31:31.181Z,8.70
2017-10-28T09:34:00.928Z,8.52
2017-10-28T09:36:30.665Z,8.43
2017-10-28T09:39:00.403Z,8.60
2017-10-28T09:41:31.146Z,8.20
2017-10-28T09:44:00.908Z,7.80
2017-10-28T09:46:30.637Z,8.15
2017-10-28T09:49:00.389Z,8.40
2017-10-28T09:51:30.124Z,7.55
2017-10-28T09:53:59.889Z,7.60
2017-10-28T09:56:29.715Z,7.35
2017-10-28T09:58:59.473Z,7.90
2017-10-28T10:01:29.229Z,7.00
2017-10-28T10:03:58.759Z,7.80
2017-10-28T10:06:28.757Z,7.45
2017-10-28T10:08:58.520Z,6.00
2017-10-28T10:11:28.264Z,6.15
2017-10-28T10:13:58.029Z,6.25
2017-10-28T10:16:27.782Z,7.37
2017-10-28T10:18:57.510Z,6.07
2017-10-28T10:21:27.265Z,6.28
2017-10-28T10:23:57.042Z,6.30
2017-10-28T10:26:26.774Z,7.00
2017-10-28T10:28:56.509Z,5.85
2017-10-28T10:31:26.285Z,6.53
2017-10-28T10:33:56.047Z,7.03
2017-10-28T10:36:25.814Z,6.15
2017-10-28T10:38:55.553Z,6.37
2017-10-28T10:41:25.285Z,6.57
2017-10-28T10:43:55.041Z,5.55
2017-10-28T10:46:24.773Z,6.05
2017-10-28T10:48:54.506Z,5.70
2017-10-28T10:51:24.058Z,6.60
2017-10-28T10:53:53.946Z,6.03
2017-10-28T10:56:23.686Z,6.37
2017-10-28T10:58:53.418Z,5.70
2017-10-28T11:01:23.212Z,5.57
2017-10-28T11:03:52.978Z,5.68
2017-10-28T11:06:22.698Z,4.53
2017-10-28T11:08:52.460Z,4.95
2017-10-28T11:11:22.237Z,5.72
2017-10-28T11:13:52.051Z,5.37
2017-10-28T11:16:21.884Z,5.62
2017-10-28T11:18:51.630Z,6.00
2017-10-28T11:21:21.365Z,6.53
2017-10-28T11:23:51.111Z,6.20
2017-10-28T11:26:20.925Z,6.32
2017-10-28T11:28:50.860Z,6.12
2017-10-28T11:31:20.796Z,5.82
2017-10-28T11:33:50.587Z,6.25
2017-10-28T11:36:20.401Z,5.07
2017-10-28T11:38:50.148Z,5.07
2017-10-28T11:41:20.000Z,6.05
2017-10-28T11:43:49.731Z,6.10
2017-10-28T11:46:19.485Z,5.15
2017-10-28T11:48:49.369Z,5.10
2017-10-28T11:51:19.122Z,4.40
2017-10-28T11:53:48.890Z,5.12
2017-10-28T11:56:21.657Z,4.80
2017-10-28T11:58:51.434Z,5.22
2017-10-28T12:01:21.200Z,4.47
2017-10-28T12:03:50.950Z,4.70
2017-10-28T12:06:20.760Z,5.15
2017-10-28T12:08:50.521Z,4.40
2017-10-28T12:11:20.328Z,4.68
2017-10-28T12:13:49.871Z,4.40
2017-10-28T12:16:19.694Z,4.60
2017-10-28T12:18:49.995Z,4.10
2017-10-28T12:21:20.015Z,4.00
2017-10-28T12:23:49.746Z,4.05
2017-10-28T12:26:19.504Z,4.15
2017-10-28T12:28:49.283Z,4.55
2017-10-28T12:31:19.022Z,4.45
2017-10-28T12:33:48.822Z,4.10
2017-10-28T12:36:18.585Z,4.85
2017-10-28T12:38:48.362Z,5.70
2017-10-28T12:41:18.117Z,5.53
2017-10-28T12:43:47.958Z,5.10
2017-10-28T12:46:17.741Z,5.00
2017-10-28T12:48:47.503Z,5.07
2017-10-28T12:51:17.275Z,4.90
2017-10-28T12:53:47.032Z,4.32
2017-10-28T12:56:16.796Z,5.12
2017-10-28T12:58:46.539Z,4.85
2017-10-28T13:01:16.283Z,4.20
2017-10-28T13:03:46.069Z,5.00
2017-10-28T13:06:15.859Z,4.28
2017-10-28T13:08:45.605Z,4.15
2017-10-28T13:11:15.418Z,4.18
2017-10-28T13:13:45.154Z,3.40
2017-10-28T13:16:14.932Z,3.35
2017-10-28T13:18:46.139Z,3.87
2017-10-28T13:21:15.945Z,3.60
2017-10-28T13:23:45.701Z,3.47
2017-10-28T13:26:15.475Z,2.80
2017-10-28T13:28:45.236Z,3.75
2017-10-28T13:31:15.133Z,2.87
2017-10-28T13:33:44.884Z,3.90
2017-10-28T13:36:14.641Z,3.20
2017-10-28T13:38:44.430Z,3.35
2017-10-28T13:41:14.188Z,3.47
2017-10-28T13:43:43.930Z,3.20
2017-10-28T13:46:13.675Z,3.30
2017-10-28T13:48:43.471Z,3.40
2017-10-28T13:51:13.233Z,3.25
2017-10-28T13:53:42.973Z,4.32
2017-10-28T13:56:12.805Z,3.42
2017-10-28T13:58:42.596Z,3.37
2017-10-28T14:01:12.346Z,3.85
2017-10-28T14:03:42.093Z,3.78
2017-10-28T14:06:11.850Z,3.65
2017-10-28T14:08:41.648Z,3.85
2017-10-28T14:11:11.451Z,2.85
2017-10-28T14:13:41.201Z,3.12
2017-10-28T14:16:10.960Z,3.80
2017-10-28T14:18:40.684Z,3.50
2017-10-28T14:21:10.421Z,3.42
2017-10-28T14:23:40.186Z,2.90
2017-10-28T14:26:09.926Z,3.53
2017-10-28T14:28:39.656Z,3.67
2017-10-28T14:31:09.279Z,3.65
2017-10-28T14:33:39.040Z,3.40
2017-10-28T14:36:08.786Z,3.75
2017-10-28T14:38:38.544Z,3.28
2017-10-28T14:41:08.280Z,3.20
2017-10-28T14:43:38.049Z,3.30
2017-10-28T14:46:07.898Z,3.17
2017-10-28T14:48:37.831Z,3.37
2017-10-28T14:51:11.081Z,3.08
2017-10-28T14:53:40.865Z,3.08
2017-10-28T14:56:10.987Z,3.37
2017-10-28T14:58:40.765Z,3.15
2017-10-28T15:01:10.511Z,3.15
2017-10-28T15:03:40.299Z,4.00
2017-10-28T15:06:09.927Z,3.45
2017-10-28T15:08:41.562Z,3.53
2017-10-28T15:11:11.915Z,3.20
2017-10-28T15:13:41.648Z,2.87
2017-10-28T15:16:12.043Z,3.25
2017-10-28T15:18:41.797Z,3.45
2017-10-28T15:21:11.613Z,3.62
2017-10-28T15:23:41.366Z,3.62
2017-10-28T15:26:11.122Z,3.75
2017-10-28T15:28:40.879Z,3.12
2017-10-28T15:31:10.702Z,3.30
2017-10-28T15:33:40.907Z,3.10
2017-10-28T15:36:11.350Z,3.50
2017-10-28T15:38:41.109Z,3.67
2017-10-28T15:41:10.877Z,3.50
2017-10-28T15:43:40.642Z,3.87
2017-10-28T15:46:10.429Z,4.15
2017-10-28T15:48:40.177Z,3.85
2017-10-28T15:51:12.175Z,3.90
2017-10-28T15:53:42.332Z,3.78
2017-10-28T15:56:12.119Z,3.97
2017-10-28T15:58:46.175Z,3.53
2017-10-28T16:01:15.961Z,3.67
2017-10-28T16:03:45.756Z,3.55
2017-10-28T16:06:15.632Z,4.37
2017-10-28T16:08:45.190Z,3.97
2017-10-28T16:11:15.303Z,4.10
2017-10-28T16:13:44.837Z,3.95
2017-10-28T16:16:15.231Z,5.03
2017-10-28T16:18:45.399Z,4.35
2017-10-28T16:21:14.956Z,4.55
2017-10-28T16:23:44.496Z,4.05
2017-10-28T16:26:14.049Z,4.15
2017-10-28T16:28:43.615Z,4.43
2017-10-28T16:31:17.582Z,4.47
2017-10-28T16:33:47.134Z,4.00
2017-10-28T16:36:18.031Z,4.50
2017-10-28T16:38:48.264Z,4.75
2017-10-28T16:41:17.874Z,4.95
2017-10-28T16:43:47.432Z,4.87
2017-10-28T16:46:16.999Z,5.07
2017-10-28T16:48:46.573Z,4.70
2017-10-28T16:51:16.111Z,4.65
2017-10-28T16:53:45.654Z,5.25
2017-10-28T16:56:15.201Z,4.87
2017-10-28T16:58:44.739Z,5.55
2017-10-28T17:01:14.310Z,4.68
2017-10-28T17:03:43.922Z,4.82
2017-10-28T17:06:13.492Z,4.55
2017-10-28T17:08:43.047Z,4.30
2017-10-28T17:11:12.609Z,5.53
2017-10-28T17:13:42.158Z,4.80
2017-10-28T17:16:11.762Z,4.95
2017-10-28T17:18:41.361Z,5.00
2017-10-28T17:21:10.999Z,5.00
2017-10-28T17:23:40.592Z,5.15
2017-10-28T17:26:10.153Z,4.78
2017-10-28T17:28:39.707Z,4.00
2017-10-28T17:31:09.307Z,3.87
2017-10-28T17:33:38.854Z,4.10
2017-10-28T17:36:08.432Z,4.90
2017-10-28T17:38:38.118Z,4.40
2017-10-28T17:41:07.665Z,3.90
2017-10-28T17:43:37.273Z,4.00
2017-10-28T17:46:06.861Z,5.50
2017-10-28T17:48:36.393Z,3.60
2017-10-28T17:51:06.479Z,3.80
2017-10-28T17:53:36.089Z,4.15
2017-10-28T17:56:05.656Z,3.25
2017-10-28T17:58:35.218Z,4.10
2017-10-28T18:01:05.086Z,4.00
2017-10-28T18:03:35.006Z,3.70
2017-10-28T18:06:04.745Z,3.25
2017-10-28T18:08:34.313Z,3.53
2017-10-28T18:11:04.159Z,3.50
2017-10-28T18:13:33.789Z,3.47
2017-10-28T18:16:03.416Z,3.53
2017-10-28T18:18:33.917Z,3.60
2017-10-28T18:21:03.635Z,3.12
2017-10-28T18:23:39.125Z,3.90
2017-10-28T18:26:08.753Z,3.03
2017-10-28T18:28:38.317Z,3.53
2017-10-28T18:31:07.993Z,3.45
2017-10-28T18:33:37.614Z,3.15
2017-10-28T18:36:16.895Z,2.45
2017-10-28T18:38:48.882Z,3.12
2017-10-28T18:41:18.491Z,2.87
2017-10-28T18:43:48.184Z,2.85
2017-10-28T18:46:17.889Z,3.10
2017-10-28T18:48:47.627Z,3.10
2017-10-28T18:51:17.599Z,2.40
2017-10-28T18:53:47.458Z,2.60
2017-10-28T18:56:17.246Z,2.62
2017-10-28T18:58:49.104Z,3.00
2017-10-28T19:01:19.281Z,3.10
2017-10-28T19:03:48.880Z,2.70
2017-10-28T19:06:18.418Z,3.10
2017-10-28T19:08:48.025Z,3.22
2017-10-28T19:11:17.593Z,2.70
2017-10-28T19:13:50.879Z,3.50
2017-10-28T19:16:20.510Z,4.05
2017-10-28T19:18:50.183Z,3.90
2017-10-28T19:21:19.749Z,3.25
2017-10-28T19:23:49.448Z,3.55
2017-10-28T19:26:19.941Z,3.80
2017-10-28T19:28:49.761Z,3.60
2017-10-28T19:31:19.568Z,4.25
2017-10-28T19:33:49.236Z,3.85
2017-10-28T19:36:20.008Z,3.30
2017-10-28T19:38:49.778Z,3.05
2017-10-28T19:41:19.544Z,3.78
2017-10-28T19:43:49.081Z,3.60
2017-10-28T19:46:18.881Z,3.97
2017-10-28T19:48:49.090Z,4.12
2017-10-28T19:51:19.000Z,3.60
2017-10-28T19:53:51.243Z,3.37
2017-10-28T19:56:21.286Z,3.83
2017-10-28T19:58:51.123Z,3.37
2017-10-28T20:01:20.951Z,3.10
2017-10-28T20:03:50.659Z,3.95
2017-10-28T20:06:20.192Z,3.60
2017-10-28T20:08:50.071Z,3.35
2017-10-28T20:11:19.617Z,3.33
2017-10-28T20:13:49.331Z,3.60
2017-10-28T20:16:19.110Z,4.28
2017-10-28T20:18:49.296Z,4.18
2017-10-28T20:21:19.268Z,4.07
2017-10-28T20:23:53.571Z,4.32
2017-10-28T20:26:23.339Z,3.85
2017-10-28T20:28:52.864Z,4.72
2017-10-28T20:31:22.428Z,4.55
2017-10-28T20:33:52.015Z,5.22
2017-10-28T20:36:21.739Z,4.82
2017-10-28T20:38:51.358Z,4.00
2017-10-28T20:41:20.945Z,4.57
2017-10-28T20:43:50.558Z,4.85
2017-10-28T20:46:20.239Z,5.05
2017-10-28T20:48:50.110Z,3.62
2017-10-28T20:51:19.626Z,4.30
2017-10-28T20:53:49.443Z,4.18
2017-10-28T20:56:18.972Z,4.40
2017-10-28T20:58:49.308Z,4.45
2017-10-28T21:01:19.194Z,4.75
2017-10-28T21:03:48.718Z,4.18
2017-10-28T21:06:18.269Z,4.75
2017-10-28T21:08:47.808Z,5.18
2017-10-28T21:11:17.355Z,4.53
2017-10-28T21:13:46.911Z,4.53
2017-10-28T21:16:16.462Z,4.05
2017-10-28T21:18:46.012Z,4.90
2017-10-28T21:21:15.611Z,4.60
2017-10-28T21:23:44.951Z,4.93
2017-10-28T21:26:14.489Z,4.85
2017-10-28T21:28:44.025Z,4.00
2017-10-28T21:31:13.577Z,3.92
2017-10-28T21:33:43.138Z,4.28
2017-10-28T21:36:12.668Z,4.18
2017-10-28T21:38:42.209Z,4.43
2017-10-28T21:41:11.745Z,3.75
2017-10-28T21:43:41.087Z,4.00
2017-10-28T21:46:10.760Z,4.00
2017-10-28T21:48:40.289Z,3.47
2017-10-28T21:51:09.822Z,4.57
2017-10-28T21:53:39.352Z,3.20
2017-10-28T21:56:08.897Z,3.15
2017-10-28T21:58:38.484Z,3.25
2017-10-28T22:01:08.053Z,3.55
2017-10-28T22:03:37.590Z,2.70
2017-10-28T22:06:07.117Z,2.97
2017-10-28T22:08:36.669Z,3.50
2017-10-28T22:11:06.018Z,3.22
2017-10-28T22:13:35.566Z,2.87
2017-10-28T22:16:05.128Z,3.47
2017-10-28T22:18:34.496Z,3.10
2017-10-28T22:21:03.863Z,3.03
2017-10-28T22:23:33.398Z,3.08
2017-10-28T22:26:02.942Z,2.25
2017-10-28T22:28:32.508Z,2.10
2017-10-28T22:31:02.034Z,2.47
2017-10-28T22:33:31.582Z,2.50
2017-10-28T22:36:01.126Z,2.85
2017-10-28T22:38:30.655Z,2.47
2017-10-28T22:41:00.245Z,2.20
2017-10-28T22:43:29.777Z,1.90
2017-10-28T22:45:59.315Z,2.15
2017-10-28T22:48:28.852Z,1.90
2017-10-28T22:50:58.050Z,2.05
2017-10-28T22:53:27.660Z,2.53
2017-10-28T22:55:57.183Z,2.20
2017-10-28T22:58:26.802Z,1.95
2017-10-28T23:00:56.354Z,2.05
2017-10-28T23:03:25.893Z,2.10
2017-10-28T23:05:55.624Z,2.00
2017-10-28T23:08:25.412Z,2.15
2017-10-28T23:10:54.970Z,2.10
2017-10-28T23:13:24.694Z,2.12
2017-10-28T23:15:54.418Z,2.00
2017-10-28T23:18:24.014Z,2.50
2017-10-28T23:20:53.756Z,2.50
2017-10-28T23:23:23.491Z,2.10
2017-10-28T23:25:53.220Z,2.50
2017-10-28T23:28:22.986Z,2.40
2017-10-28T23:30:52.702Z,2.15
2017-10-28T23:33:22.203Z,2.00
2017-10-28T23:35:51.936Z,1.92
2017-10-28T23:38:21.674Z,1.87
2017-10-28T23:40:51.419Z,2.33
2017-10-28T23:43:21.161Z,2.10
2017-10-28T23:45:50.891Z,2.55
2017-10-28T23:48:20.628Z,2.25
2017-10-28T23:50:50.622Z,2.00
2017-10-28T23:53:20.343Z,2.20
2017-10-28T23:55:50.089Z,2.30
2017-10-28T23:58:19.822Z,2.28
